Satellite Precipitation Estimates (TXUS20 KWBC)
Issued by NWS

Home | Current Version | Previous Version | Text Only | Print | Product List | Glossary On
Versions: 1 2
000
SPTD31 TTPP 170201 RRA
SPECI
TTCP 170140Z 11005KT 9999 -SHRA VCSH SCT016 24/22 Q1014=



USA.gov is the U.S. government's official web portal to all federal, state and local government web resources and services.